Time;durP1;ratioP1;P1;durP2;ratioP2;P2;SDS_P1;SDS_P2;PMS_P1;PMS_P2;Temp;Humidity;BMP_temperature;BMP_pressure;BME280_temperature;BME280_humidity;BME280_pressure;Samples;Min_cycle;Max_cycle;Signal;HPM_P1;HPM_P2
2022/06/29 00:00:08;;;;;;;6.70;6.20;;;;;;;;;;5071833;28;20448;-75
2022/06/29 00:02:35;;;;;;;7.77;7.07;;;;;;;;;;5071538;28;20476;-77
2022/06/29 00:05:03;;;;;;;6.17;5.77;;;;;;;;;;5073109;28;20444;-75
2022/06/29 00:07:30;;;;;;;6.90;6.20;;;;;;;;;;5073226;28;20455;-75
2022/06/29 00:09:57;;;;;;;6.63;6.10;;;;;;;;;;5072568;28;20441;-75
2022/06/29 00:12:25;;;;;;;6.57;5.97;;;;;;;;;;5067549;28;20472;-74
2022/06/29 00:14:53;;;;;;;6.70;6.30;;;;;;;;;;5071474;28;20455;-76
2022/06/29 00:17:20;;;;;;;6.80;6.30;;;;;;;;;;5070917;28;20958;-74
2022/06/29 00:19:47;;;;;;;7.10;6.60;;;;;;;;;;5061570;28;20467;-75
2022/06/29 00:22:14;;;;;;;7.40;6.70;;;;;;;;;;5070928;28;20453;-75
2022/06/29 00:24:41;;;;;;;7.13;6.53;;;;;;;;;;5070990;28;20448;-75
2022/06/29 00:27:08;;;;;;;6.27;5.87;;;;;;;;;;5071365;28;21080;-75
2022/06/29 00:29:37;;;;;;;6.73;6.33;;;;;;;;;;5071297;28;20641;-75
2022/06/29 00:32:05;;;;;;;7.03;6.53;;;;;;;;;;5071082;28;20477;-75
2022/06/29 00:34:32;;;;;;;6.90;6.50;;;;;;;;;;5070897;28;20524;-75
2022/06/29 00:36:59;;;;;;;6.87;6.37;;;;;;;;;;5071239;28;20525;-75
2022/06/29 00:39:26;;;;;;;6.50;6.10;;;;;;;;;;5071172;28;20447;-74
2022/06/29 00:41:53;;;;;;;6.77;6.27;;;;;;;;;;5071026;28;20457;-75
2022/06/29 00:44:21;;;;;;;7.33;6.83;;;;;;;;;;5070686;28;20542;-75
2022/06/29 00:46:50;;;;;;;7.47;6.87;;;;;;;;;;5071128;28;20856;-74
2022/06/29 00:49:18;;;;;;;7.40;6.90;;;;;;;;;;5070886;28;20466;-74
2022/06/29 00:51:46;;;;;;;8.60;6.90;;;;;;;;;;5073298;28;20464;-75
2022/06/29 00:54:14;;;;;;;6.93;6.47;;;;;;;;;;5074504;28;20476;-75
2022/06/29 00:56:42;;;;;;;7.17;6.60;;;;;;;;;;5074234;28;20948;-75
2022/06/29 00:59:10;;;;;;;6.40;6.00;;;;;;;;;;5074389;28;20494;-75
2022/06/29 01:01:37;;;;;;;7.23;6.50;;;;;;;;;;5074599;28;20545;-76
2022/06/29 01:04:06;;;;;;;7.13;6.53;;;;;;;;;;5074301;28;20480;-76
2022/06/29 01:06:34;;;;;;;6.73;6.20;;;;;;;;;;5074794;28;20498;-75
2022/06/29 01:09:01;;;;;;;7.33;6.70;;;;;;;;;;5064602;28;20441;-76
2022/06/29 01:11:29;;;;;;;7.30;6.70;;;;;;;;;;5054537;28;20449;-75
2022/06/29 01:13:56;;;;;;;7.00;6.50;;;;;;;;;;5053890;28;20438;-74
2022/06/29 01:16:23;;;;;;;6.87;6.40;;;;;;;;;;5054151;28;21170;-76
2022/06/29 01:18:50;;;;;;;6.83;6.43;;;;;;;;;;5054276;28;20442;-75
2022/06/29 01:21:22;;;;;;;7.00;6.50;;;;;;;;;;5054041;28;20519;-75
2022/06/29 01:23:50;;;;;;;6.77;6.37;;;;;;;;;;5054079;28;20580;-75
2022/06/29 01:26:17;;;;;;;8.33;7.53;;;;;;;;;;5054451;28;20496;-75
2022/06/29 01:28:46;;;;;;;7.10;6.40;;;;;;;;;;5054201;28;20499;-75
2022/06/29 01:31:16;;;;;;;6.87;6.40;;;;;;;;;;5053831;28;20846;-75
2022/06/29 01:33:44;;;;;;;6.97;6.37;;;;;;;;;;5053274;28;20953;-76
2022/06/29 01:36:11;;;;;;;6.87;6.37;;;;;;;;;;5053821;28;20499;-75
2022/06/29 01:38:38;;;;;;;7.50;6.27;;;;;;;;;;5053737;28;20452;-76
2022/06/29 01:41:07;;;;;;;7.13;6.73;;;;;;;;;;5053689;28;20465;-75
2022/06/29 01:43:34;;;;;;;7.27;6.77;;;;;;;;;;5053160;28;20489;-75
2022/06/29 01:46:01;;;;;;;7.53;6.80;;;;;;;;;;5053246;28;20598;-75
2022/06/29 01:48:28;;;;;;;7.10;6.70;;;;;;;;;;5053712;28;20770;-75
2022/06/29 01:50:55;;;;;;;7.53;7.00;;;;;;;;;;5053354;28;20465;-76
2022/06/29 01:53:23;;;;;;;6.50;6.10;;;;;;;;;;5053017;28;20949;-74
2022/06/29 01:55:50;;;;;;;6.87;6.40;;;;;;;;;;5053447;28;20445;-75
2022/06/29 01:58:18;;;;;;;7.20;6.57;;;;;;;;;;5053001;28;20519;-74
2022/06/29 02:00:45;;;;;;;7.10;6.70;;;;;;;;;;5053240;28;20462;-75
2022/06/29 02:03:12;;;;;;;7.47;6.87;;;;;;;;;;5052482;28;20853;-74
2022/06/29 02:05:40;;;;;;;6.53;6.13;;;;;;;;;;5053618;28;20445;-76
2022/06/29 02:08:07;;;;;;;9.70;6.80;;;;;;;;;;5053106;28;20442;-75
2022/06/29 02:10:34;;;;;;;6.70;6.00;;;;;;;;;;5053108;28;20454;-74
2022/06/29 02:13:01;;;;;;;6.80;6.40;;;;;;;;;;5052705;28;20469;-76
2022/06/29 02:15:29;;;;;;;7.73;7.17;;;;;;;;;;5053347;28;20442;-75
2022/06/29 02:17:56;;;;;;;7.23;6.60;;;;;;;;;;5052854;28;20944;-77
2022/06/29 02:20:23;;;;;;;7.53;6.97;;;;;;;;;;5052769;28;20450;-75
2022/06/29 02:22:51;;;;;;;7.57;7.00;;;;;;;;;;5053140;28;20454;-76
2022/06/29 02:25:18;;;;;;;8.47;7.87;;;;;;;;;;5052623;28;20955;-74
2022/06/29 02:27:46;;;;;;;7.30;6.80;;;;;;;;;;5052597;28;20446;-75
2022/06/29 02:30:13;;;;;;;7.50;6.90;;;;;;;;;;5052750;28;20638;-75
2022/06/29 02:35:27;;;;;;;9.00;8.30;;;;;;;;;;5052755;28;20441;-75
2022/06/29 02:37:54;;;;;;;7.03;6.53;;;;;;;;;;5052443;28;20499;-75
2022/06/29 02:40:21;;;;;;;8.10;7.60;;;;;;;;;;5052855;28;20487;-77
2022/06/29 02:42:48;;;;;;;8.07;7.47;;;;;;;;;;5052581;28;20570;-77
2022/06/29 02:45:15;;;;;;;7.60;7.10;;;;;;;;;;5052425;28;20477;-75
2022/06/29 02:47:43;;;;;;;7.90;7.40;;;;;;;;;;5052643;28;20438;-76
2022/06/29 02:50:10;;;;;;;7.57;7.07;;;;;;;;;;5052644;28;21009;-75
2022/06/29 02:52:38;;;;;;;7.80;7.20;;;;;;;;;;5054046;28;20468;-75
2022/06/29 02:55:05;;;;;;;7.80;7.10;;;;;;;;;;5069084;28;20444;-75
2022/06/29 02:57:32;;;;;;;7.23;6.83;;;;;;;;;;5072095;28;20440;-76
2022/06/29 02:59:59;;;;;;;8.33;7.73;;;;;;;;;;5071781;28;20842;-75
2022/06/29 03:02:26;;;;;;;8.10;7.40;;;;;;;;;;5072133;28;20807;-76
2022/06/29 03:04:55;;;;;;;8.70;7.70;;;;;;;;;;5072042;28;20522;-75
2022/06/29 03:07:21;;;;;;;8.57;7.77;;;;;;;;;;5071828;28;20441;-75
2022/06/29 03:09:48;;;;;;;8.00;7.40;;;;;;;;;;5071939;28;20514;-75
2022/06/29 03:12:15;;;;;;;8.10;7.53;;;;;;;;;;5071914;28;20460;-75
2022/06/29 03:14:43;;;;;;;8.27;7.57;;;;;;;;;;5070758;28;20924;-75
2022/06/29 03:17:09;;;;;;;8.20;7.60;;;;;;;;;;5071682;28;20929;-75
2022/06/29 03:19:36;;;;;;;7.57;6.97;;;;;;;;;;5071822;28;20441;-75
2022/06/29 03:22:05;;;;;;;7.77;7.20;;;;;;;;;;5071674;28;21177;-74
2022/06/29 03:24:32;;;;;;;7.63;7.03;;;;;;;;;;5071725;28;20483;-75
2022/06/29 03:26:59;;;;;;;7.93;7.30;;;;;;;;;;5071779;28;20502;-75
2022/06/29 03:29:26;;;;;;;7.70;7.10;;;;;;;;;;5071635;28;20559;-75
2022/06/29 03:31:53;;;;;;;7.57;6.97;;;;;;;;;;5070887;28;20468;-75
2022/06/29 03:34:20;;;;;;;8.53;8.03;;;;;;;;;;5071433;28;20437;-75
2022/06/29 03:36:47;;;;;;;8.40;7.80;;;;;;;;;;5072054;28;21001;-74
2022/06/29 03:39:16;;;;;;;9.40;8.10;;;;;;;;;;5072082;28;20440;-75
2022/06/29 03:41:43;;;;;;;9.70;9.00;;;;;;;;;;5071848;28;20460;-75
2022/06/29 03:44:10;;;;;;;8.97;8.37;;;;;;;;;;5071334;28;20992;-76
2022/06/29 03:46:37;;;;;;;9.47;8.80;;;;;;;;;;5071869;28;20959;-75
2022/06/29 03:49:04;;;;;;;9.37;8.60;;;;;;;;;;5072433;28;20474;-75
2022/06/29 03:51:31;;;;;;;11.43;9.27;;;;;;;;;;5073458;28;20830;-74
2022/06/29 03:53:58;;;;;;;8.97;8.37;;;;;;;;;;5073079;28;20448;-74
2022/06/29 03:56:28;;;;;;;9.63;8.83;;;;;;;;;;5072765;28;20444;-74
2022/06/29 03:58:57;;;;;;;9.30;8.50;;;;;;;;;;5075807;28;20437;-74
2022/06/29 04:01:24;;;;;;;9.20;8.60;;;;;;;;;;5071547;28;20467;-75
2022/06/29 04:03:51;;;;;;;8.80;8.20;;;;;;;;;;5071484;28;20476;-74
2022/06/29 04:06:18;;;;;;;8.47;7.97;;;;;;;;;;5071640;28;20479;-74
2022/06/29 04:08:45;;;;;;;8.20;7.60;;;;;;;;;;5063936;28;20520;-75
2022/06/29 04:13:55;;;;;;;8.37;7.67;;;;;;;;;;5061749;28;20455;-74
2022/06/29 04:16:22;;;;;;;9.30;8.57;;;;;;;;;;5071571;28;20445;-75
2022/06/29 04:18:49;;;;;;;8.70;8.00;;;;;;;;;;5072056;28;20549;-75
2022/06/29 04:21:16;;;;;;;8.77;8.10;;;;;;;;;;5080271;28;20459;-75
2022/06/29 04:23:43;;;;;;;7.93;7.33;;;;;;;;;;5075556;28;20441;-75
2022/06/29 04:26:10;;;;;;;8.97;8.17;;;;;;;;;;5082868;28;20448;-75
2022/06/29 04:28:37;;;;;;;9.07;8.13;;;;;;;;;;5084415;28;20440;-74
2022/06/29 04:31:05;;;;;;;8.60;8.00;;;;;;;;;;5080208;28;20553;-75
2022/06/29 04:33:32;;;;;;;9.23;8.30;;;;;;;;;;5080423;28;20456;-75
2022/06/29 04:35:59;;;;;;;9.47;8.87;;;;;;;;;;5076736;28;20441;-75
2022/06/29 04:38:26;;;;;;;11.00;10.20;;;;;;;;;;5075655;28;20444;-77
2022/06/29 04:40:53;;;;;;;11.47;10.60;;;;;;;;;;5075914;28;20513;-76
2022/06/29 04:43:20;;;;;;;11.50;10.67;;;;;;;;;;5075419;28;20444;-75
2022/06/29 04:48:33;;;;;;;11.77;10.77;;;;;;;;;;5074996;28;20435;-74
2022/06/29 04:51:00;;;;;;;11.23;10.33;;;;;;;;;;5074774;28;20456;-76
2022/06/29 04:53:27;;;;;;;12.47;11.47;;;;;;;;;;5074929;28;20456;-75
2022/06/29 04:55:54;;;;;;;11.47;10.60;;;;;;;;;;5074729;28;20998;-74
2022/06/29 04:58:21;;;;;;;12.10;11.00;;;;;;;;;;5074788;28;20444;-74
2022/06/29 05:00:48;;;;;;;12.50;11.43;;;;;;;;;;5074449;28;20460;-75
2022/06/29 05:03:15;;;;;;;11.87;10.97;;;;;;;;;;5074662;28;20445;-76
2022/06/29 05:05:44;;;;;;;11.57;10.63;;;;;;;;;;5074547;28;20472;-76
2022/06/29 05:08:11;;;;;;;12.03;11.00;;;;;;;;;;5074714;28;20506;-75
2022/06/29 05:10:38;;;;;;;12.03;10.90;;;;;;;;;;5074765;28;20436;-75
2022/06/29 05:13:05;;;;;;;13.03;11.70;;;;;;;;;;5074399;28;20448;-77
2022/06/29 05:15:32;;;;;;;11.60;10.77;;;;;;;;;;5074749;28;20519;-75
2022/06/29 05:17:59;;;;;;;12.93;11.83;;;;;;;;;;5074133;28;20499;-75
2022/06/29 05:20:26;;;;;;;13.03;11.80;;;;;;;;;;5075444;28;20441;-75
2022/06/29 05:22:54;;;;;;;12.67;11.67;;;;;;;;;;5074219;28;20444;-75
2022/06/29 05:25:21;;;;;;;12.23;11.23;;;;;;;;;;5074569;28;20476;-77
2022/06/29 05:27:48;;;;;;;11.80;10.90;;;;;;;;;;5074613;28;20456;-76
2022/06/29 05:30:16;;;;;;;11.90;10.87;;;;;;;;;;5074648;28;20444;-76
2022/06/29 05:32:44;;;;;;;12.47;11.47;;;;;;;;;;5073589;28;20480;-76
2022/06/29 05:35:11;;;;;;;12.40;11.40;;;;;;;;;;5073985;28;20436;-75
2022/06/29 05:37:39;;;;;;;12.17;11.07;;;;;;;;;;5072974;28;20447;-76
2022/06/29 05:40:08;;;;;;;11.83;10.90;;;;;;;;;;5074308;28;20506;-76
2022/06/29 05:42:35;;;;;;;12.83;11.70;;;;;;;;;;5073953;28;20522;-76
2022/06/29 05:45:02;;;;;;;11.77;10.57;;;;;;;;;;5073887;28;20476;-76
2022/06/29 05:47:29;;;;;;;12.40;11.27;;;;;;;;;;5073594;28;20921;-76
2022/06/29 05:49:57;;;;;;;11.83;10.93;;;;;;;;;;5073717;28;20440;-76
2022/06/29 05:52:24;;;;;;;11.37;10.50;;;;;;;;;;5073434;28;20522;-77
2022/06/29 05:54:51;;;;;;;12.20;10.97;;;;;;;;;;5073297;28;20436;-76
2022/06/29 05:57:20;;;;;;;10.60;9.70;;;;;;;;;;5073391;28;20490;-76
2022/06/29 05:59:47;;;;;;;12.50;11.57;;;;;;;;;;5073477;28;20485;-76
2022/06/29 06:02:14;;;;;;;12.20;11.10;;;;;;;;;;5073387;28;20976;-76
2022/06/29 06:04:42;;;;;;;11.50;10.60;;;;;;;;;;5074990;28;20476;-77
2022/06/29 06:07:09;;;;;;;10.70;9.90;;;;;;;;;;5075364;28;20456;-75
2022/06/29 06:09:36;;;;;;;11.17;10.27;;;;;;;;;;5075909;28;20818;-76
2022/06/29 06:12:04;;;;;;;11.07;10.00;;;;;;;;;;5076989;28;20518;-76
2022/06/29 06:14:32;;;;;;;11.20;10.40;;;;;;;;;;5077746;28;20463;-77
2022/06/29 06:16:59;;;;;;;10.40;9.70;;;;;;;;;;5080265;28;20801;-76
2022/06/29 06:19:26;;;;;;;12.37;11.33;;;;;;;;;;5084924;28;20440;-78
2022/06/29 06:21:53;;;;;;;12.37;11.17;;;;;;;;;;5077676;28;20530;-76
2022/06/29 06:24:20;;;;;;;10.67;9.87;;;;;;;;;;5072821;28;20448;-76
2022/06/29 06:26:47;;;;;;;12.80;11.70;;;;;;;;;;5073338;28;20447;-77
2022/06/29 06:29:14;;;;;;;12.80;11.67;;;;;;;;;;5072899;28;20449;-76
2022/06/29 06:31:43;;;;;;;11.10;10.20;;;;;;;;;;5072853;28;20514;-77
2022/06/29 06:34:10;;;;;;;9.80;9.07;;;;;;;;;;5072780;28;20474;-76
2022/06/29 06:36:37;;;;;;;9.97;9.17;;;;;;;;;;5068720;28;20481;-75
2022/06/29 06:39:04;;;;;;;10.70;9.60;;;;;;;;;;5069437;28;20449;-77
2022/06/29 06:41:30;;;;;;;10.83;9.93;;;;;;;;;;5072246;28;20468;-76
2022/06/29 06:43:58;;;;;;;9.83;8.90;;;;;;;;;;5072031;28;20437;-76
2022/06/29 06:46:25;;;;;;;11.80;10.80;;;;;;;;;;5069173;28;20469;-76
2022/06/29 06:48:53;;;;;;;10.80;10.00;;;;;;;;;;5059026;28;20445;-76
2022/06/29 06:51:21;;;;;;;12.07;9.33;;;;;;;;;;5072182;28;20806;-77
2022/06/29 06:53:48;;;;;;;10.47;9.67;;;;;;;;;;5072061;28;20843;-75
2022/06/29 06:56:15;;;;;;;10.37;9.57;;;;;;;;;;5072043;28;20494;-76
2022/06/29 06:58:42;;;;;;;10.07;9.17;;;;;;;;;;5072361;28;20532;-75
2022/06/29 07:01:10;;;;;;;10.67;9.73;;;;;;;;;;5072422;28;20514;-77
2022/06/29 07:03:38;;;;;;;10.27;9.37;;;;;;;;;;5072484;28;20460;-76
2022/06/29 07:06:07;;;;;;;9.37;8.77;;;;;;;;;;5072330;28;20521;-77
2022/06/29 07:08:34;;;;;;;9.10;8.50;;;;;;;;;;5072385;28;20437;-75
2022/06/29 07:11:02;;;;;;;8.90;8.30;;;;;;;;;;5072079;28;20460;-75
2022/06/29 07:13:30;;;;;;;10.37;9.43;;;;;;;;;;5072126;28;20447;-76
2022/06/29 07:15:57;;;;;;;9.57;8.70;;;;;;;;;;5073328;28;20482;-76
2022/06/29 07:18:24;;;;;;;9.23;8.33;;;;;;;;;;5076982;28;20498;-75
2022/06/29 07:20:51;;;;;;;10.83;9.37;;;;;;;;;;5081726;28;20540;-75
2022/06/29 07:23:20;;;;;;;9.03;8.33;;;;;;;;;;5073048;28;20433;-75
2022/06/29 07:25:47;;;;;;;9.70;8.70;;;;;;;;;;5072441;28;20491;-76
2022/06/29 07:28:14;;;;;;;9.87;8.67;;;;;;;;;;5071864;28;20452;-75
2022/06/29 07:30:42;;;;;;;10.57;9.40;;;;;;;;;;5071571;28;20449;-75
2022/06/29 07:33:09;;;;;;;11.13;9.77;;;;;;;;;;5071219;28;20506;-74
2022/06/29 07:35:37;;;;;;;10.10;9.10;;;;;;;;;;5071745;28;20464;-75
2022/06/29 07:38:04;;;;;;;18.60;10.07;;;;;;;;;;5078693;28;20528;-76
2022/06/29 07:40:32;;;;;;;10.87;9.80;;;;;;;;;;5078810;28;20466;-75
2022/06/29 07:42:59;;;;;;;10.00;9.10;;;;;;;;;;5072475;28;20839;-76
2022/06/29 07:45:26;;;;;;;10.17;9.27;;;;;;;;;;5071711;28;20476;-76
2022/06/29 07:47:53;;;;;;;9.40;8.80;;;;;;;;;;5071919;28;20441;-75
2022/06/29 07:50:20;;;;;;;10.53;9.73;;;;;;;;;;5071369;28;20441;-75
2022/06/29 07:52:47;;;;;;;12.53;9.97;;;;;;;;;;5071083;28;20818;-75
2022/06/29 07:55:14;;;;;;;9.33;8.40;;;;;;;;;;5071575;28;20440;-75
2022/06/29 07:57:44;;;;;;;9.90;9.07;;;;;;;;;;5071733;28;20448;-75
2022/06/29 08:00:11;;;;;;;9.40;8.60;;;;;;;;;;5071031;28;20455;-75
2022/06/29 08:02:38;;;;;;;8.13;7.53;;;;;;;;;;5071767;28;20465;-75
2022/06/29 08:05:06;;;;;;;7.93;7.43;;;;;;;;;;5071146;28;20550;-75
2022/06/29 08:07:33;;;;;;;12.97;8.13;;;;;;;;;;5070878;28;20433;-75
2022/06/29 08:10:00;;;;;;;9.33;8.43;;;;;;;;;;5052773;28;20487;-75
2022/06/29 08:12:27;;;;;;;10.13;7.13;;;;;;;;;;5050852;28;20466;-76
2022/06/29 08:14:55;;;;;;;9.00;8.33;;;;;;;;;;5050609;28;20937;-75
2022/06/29 08:17:22;;;;;;;8.80;8.10;;;;;;;;;;5050794;28;20499;-75
2022/06/29 08:19:50;;;;;;;8.50;7.83;;;;;;;;;;5052205;28;20450;-76
2022/06/29 08:22:17;;;;;;;7.47;6.90;;;;;;;;;;5069861;28;20560;-75
2022/06/29 08:24:45;;;;;;;8.93;8.13;;;;;;;;;;5071231;28;20440;-75
2022/06/29 08:27:12;;;;;;;8.70;7.90;;;;;;;;;;5070834;28;20490;-76
2022/06/29 08:29:39;;;;;;;7.27;6.77;;;;;;;;;;5071140;28;20448;-76
2022/06/29 08:32:08;;;;;;;8.27;7.57;;;;;;;;;;5070616;28;20896;-78
2022/06/29 08:34:35;;;;;;;6.93;6.43;;;;;;;;;;5075150;28;20502;-78
2022/06/29 08:37:02;;;;;;;7.63;7.13;;;;;;;;;;5071680;28;20531;-77
2022/06/29 08:39:29;;;;;;;7.83;7.33;;;;;;;;;;5068701;28;20464;-78
2022/06/29 08:41:57;;;;;;;7.70;7.10;;;;;;;;;;5064534;28;20461;-78
2022/06/29 08:44:24;;;;;;;7.47;6.63;;;;;;;;;;5051273;28;20495;-77
2022/06/29 08:46:51;;;;;;;10.20;7.67;;;;;;;;;;5050957;28;20854;-77
2022/06/29 08:49:21;;;;;;;8.90;8.20;;;;;;;;;;5051003;28;20449;-77
2022/06/29 08:51:49;;;;;;;8.70;8.03;;;;;;;;;;5050645;28;20641;-78
2022/06/29 08:54:16;;;;;;;8.20;7.50;;;;;;;;;;5051130;28;20796;-78
2022/06/29 08:56:44;;;;;;;7.03;6.53;;;;;;;;;;5051227;28;20505;-78
2022/06/29 08:59:11;;;;;;;7.17;6.67;;;;;;;;;;5051416;28;20450;-79
2022/06/29 09:01:38;;;;;;;8.30;7.70;;;;;;;;;;5051002;28;20473;-77
2022/06/29 09:04:07;;;;;;;7.50;6.90;;;;;;;;;;5050624;28;20805;-78
2022/06/29 09:06:36;;;;;;;8.10;7.40;;;;;;;;;;5050922;28;21030;-77
2022/06/29 09:09:03;;;;;;;8.33;7.00;;;;;;;;;;5050992;28;20468;-77
2022/06/29 09:11:31;;;;;;;8.20;7.60;;;;;;;;;;5050941;28;20540;-77
2022/06/29 09:14:11;;;;;;;8.20;7.60;;;;;;;;;;5053355;28;20656;-78
2022/06/29 09:16:51;;;;;;;7.40;6.90;;;;;;;;;;5054820;28;20445;-79
2022/06/29 09:19:18;;;;;;;7.53;7.03;;;;;;;;;;5054755;28;20495;-78
2022/06/29 09:21:47;;;;;;;7.73;7.10;;;;;;;;;;5054508;28;20468;-78
2022/06/29 09:24:18;;;;;;;7.90;7.17;;;;;;;;;;5054278;28;20967;-77
2022/06/29 09:26:45;;;;;;;7.10;6.70;;;;;;;;;;5054206;28;20580;-78
2022/06/29 09:29:19;;;;;;;6.87;6.37;;;;;;;;;;5053899;28;20467;-77
2022/06/29 09:32:07;;;;;;;7.33;6.73;;;;;;;;;;5053978;28;20559;-78
2022/06/29 09:34:34;;;;;;;6.63;6.03;;;;;;;;;;5053752;28;20910;-77
2022/06/29 09:37:03;;;;;;;6.20;5.80;;;;;;;;;;5053735;28;20496;-79
2022/06/29 09:39:33;;;;;;;6.37;5.97;;;;;;;;;;5053582;28;20422;-78
2022/06/29 09:42:00;;;;;;;6.60;6.10;;;;;;;;;;5065347;28;20555;-78
2022/06/29 09:44:27;;;;;;;5.63;5.17;;;;;;;;;;5073095;28;20444;-78
2022/06/29 09:46:56;;;;;;;5.47;4.97;;;;;;;;;;5073359;28;20472;-78
2022/06/29 09:49:26;;;;;;;5.30;4.90;;;;;;;;;;5074081;28;20444;-78
2022/06/29 09:51:55;;;;;;;6.40;5.90;;;;;;;;;;5078159;28;20589;-79
2022/06/29 09:54:26;;;;;;;6.63;6.20;;;;;;;;;;5078422;28;20451;-80
2022/06/29 09:56:57;;;;;;;6.83;6.33;;;;;;;;;;5069160;28;20461;-79
2022/06/29 10:04:54;;;;;;;7.00;6.50;;;;;;;;;;5080834;28;20519;-78
2022/06/29 10:07:21;;;;;;;6.80;6.20;;;;;;;;;;5073820;28;20500;-78
2022/06/29 10:09:49;;;;;;;6.90;6.30;;;;;;;;;;5075547;28;20498;-78
2022/06/29 10:15:10;;;;;;;7.93;6.43;;;;;;;;;;5074662;28;20526;-77
2022/06/29 10:17:49;;;;;;;9.40;6.17;;;;;;;;;;5076105;28;20433;-77
2022/06/29 10:20:25;;;;;;;6.53;6.13;;;;;;;;;;5073484;28;20433;-77
2022/06/29 10:22:52;;;;;;;6.53;5.93;;;;;;;;;;5073242;28;20505;-78
2022/06/29 10:25:27;;;;;;;6.80;6.37;;;;;;;;;;5073171;28;20437;-77
2022/06/29 10:28:17;;;;;;;6.50;6.00;;;;;;;;;;5073156;28;20413;-77
2022/06/29 10:30:44;;;;;;;6.53;6.03;;;;;;;;;;5073256;28;20452;-77
2022/06/29 10:33:30;;;;;;;6.13;5.50;;;;;;;;;;5072865;28;20445;-78
2022/06/29 10:35:58;;;;;;;6.10;5.50;;;;;;;;;;5062559;28;20805;-78
2022/06/29 10:38:25;;;;;;;6.80;6.30;;;;;;;;;;5054012;28;20463;-78
2022/06/29 10:43:51;;;;;;;7.33;5.50;;;;;;;;;;5079299;28;20589;-78
2022/06/29 10:46:18;;;;;;;6.20;5.70;;;;;;;;;;5061341;28;20507;-79
2022/06/29 10:49:11;;;;;;;6.27;5.60;;;;;;;;;;5069571;28;20563;-78
2022/06/29 10:51:38;;;;;;;6.70;6.10;;;;;;;;;;5057881;28;20495;-78
2022/06/29 10:54:21;;;;;;;6.67;6.17;;;;;;;;;;5068779;28;20498;-78
2022/06/29 10:56:48;;;;;;;6.67;6.20;;;;;;;;;;5069076;28;20417;-79
2022/06/29 10:59:29;;;;;;;7.60;5.50;;;;;;;;;;5069201;28;20521;-78
2022/06/29 11:02:10;;;;;;;6.00;5.60;;;;;;;;;;5068843;28;20903;-78
2022/06/29 11:04:37;;;;;;;6.00;5.50;;;;;;;;;;5068709;28;20444;-78
2022/06/29 11:12:34;;;;;;;5.83;5.30;;;;;;;;;;5077182;28;20448;-79
2022/06/29 11:17:48;;;;;;;6.13;5.50;;;;;;;;;;5068313;28;20397;-77
2022/06/29 11:20:18;;;;;;;5.20;4.80;;;;;;;;;;5068805;28;20441;-78
2022/06/29 11:22:52;;;;;;;5.57;5.17;;;;;;;;;;5068605;28;20530;-78
2022/06/29 11:25:19;;;;;;;6.40;5.90;;;;;;;;;;5068453;28;20502;-78
2022/06/29 11:27:46;;;;;;;6.73;6.13;;;;;;;;;;5067798;28;20444;-78
2022/06/29 11:30:15;;;;;;;5.53;5.03;;;;;;;;;;5067901;28;20475;-78
2022/06/29 11:32:43;;;;;;;6.10;5.50;;;;;;;;;;5067259;28;20849;-79
2022/06/29 11:35:12;;;;;;;5.20;4.73;;;;;;;;;;5067750;28;20563;-78
2022/06/29 11:37:46;;;;;;;6.00;5.60;;;;;;;;;;5067667;28;20437;-78
2022/06/29 11:40:13;;;;;;;5.50;5.00;;;;;;;;;;5068111;28;20453;-78
2022/06/29 11:45:30;;;;;;;5.80;5.40;;;;;;;;;;5067367;28;20435;-78
2022/06/29 11:47:57;;;;;;;5.27;4.90;;;;;;;;;;5067471;28;20453;-78
2022/06/29 11:50:25;;;;;;;6.13;4.90;;;;;;;;;;5067065;28;20877;-77
2022/06/29 11:52:52;;;;;;;5.70;5.30;;;;;;;;;;5066247;28;20429;-77
2022/06/29 11:55:34;;;;;;;5.37;4.97;;;;;;;;;;5053223;28;20863;-78
2022/06/29 11:58:01;;;;;;;5.63;5.13;;;;;;;;;;5053586;28;20854;-78
2022/06/29 12:00:28;;;;;;;17.03;5.37;;;;;;;;;;5053412;28;20796;-78
2022/06/29 12:02:58;;;;;;;6.07;4.93;;;;;;;;;;5053676;28;20485;-78
2022/06/29 12:05:27;;;;;;;4.73;4.43;;;;;;;;;;5053634;28;20441;-78
2022/06/29 12:07:54;;;;;;;4.60;4.30;;;;;;;;;;5053376;28;20468;-76
2022/06/29 12:10:21;;;;;;;5.03;4.50;;;;;;;;;;5033457;28;20473;-77
2022/06/29 12:12:48;;;;;;;5.43;4.90;;;;;;;;;;5033520;28;20575;-78
2022/06/29 12:15:16;;;;;;;4.83;4.43;;;;;;;;;;5033918;28;20556;-78
2022/06/29 12:17:44;;;;;;;10.07;4.20;;;;;;;;;;5033769;28;20974;-77
2022/06/29 12:20:12;;;;;;;5.50;5.00;;;;;;;;;;5034003;28;20473;-77
2022/06/29 12:22:40;;;;;;;5.40;5.00;;;;;;;;;;5033193;28;20657;-77
2022/06/29 12:25:08;;;;;;;4.90;4.60;;;;;;;;;;5033981;28;20455;-77
2022/06/29 12:27:36;;;;;;;4.80;4.50;;;;;;;;;;5033521;28;20493;-77
2022/06/29 12:30:05;;;;;;;5.10;4.80;;;;;;;;;;5033672;28;20450;-78
2022/06/29 12:32:32;;;;;;;4.17;3.73;;;;;;;;;;5033104;28;20462;-77
2022/06/29 12:34:59;;;;;;;3.90;3.60;;;;;;;;;;5033517;28;20442;-77
2022/06/29 12:37:26;;;;;;;4.70;4.20;;;;;;;;;;5033439;28;20438;-77
2022/06/29 12:39:54;;;;;;;4.27;3.80;;;;;;;;;;5033728;28;20454;-77
2022/06/29 12:42:22;;;;;;;5.43;4.13;;;;;;;;;;5033340;28;20490;-77
2022/06/29 12:44:49;;;;;;;4.67;4.27;;;;;;;;;;5033195;28;20493;-78
2022/06/29 12:47:16;;;;;;;4.57;4.20;;;;;;;;;;5033511;28;20493;-77
2022/06/29 12:49:43;;;;;;;4.00;3.67;;;;;;;;;;5033400;28;20439;-77
2022/06/29 12:52:10;;;;;;;4.70;4.00;;;;;;;;;;5032842;28;20520;-77
2022/06/29 12:54:37;;;;;;;4.10;3.73;;;;;;;;;;5032409;28;20480;-78
2022/06/29 12:57:06;;;;;;;6.77;4.23;;;;;;;;;;5034084;28;20446;-78
2022/06/29 12:59:33;;;;;;;4.30;3.90;;;;;;;;;;5033658;28;20492;-77
2022/06/29 13:02:00;;;;;;;4.80;4.40;;;;;;;;;;5033104;28;20877;-76
2022/06/29 13:04:27;;;;;;;5.37;4.97;;;;;;;;;;5032488;28;20443;-78
2022/06/29 13:06:54;;;;;;;4.80;4.40;;;;;;;;;;5032072;28;20600;-77
2022/06/29 13:09:21;;;;;;;4.93;4.53;;;;;;;;;;5047829;28;20450;-77
2022/06/29 13:11:48;;;;;;;4.93;4.43;;;;;;;;;;5055887;28;20523;-77
2022/06/29 13:14:16;;;;;;;9.90;4.10;;;;;;;;;;5055475;28;20438;-77
2022/06/29 13:16:43;;;;;;;6.20;4.30;;;;;;;;;;5055724;28;20437;-77
2022/06/29 13:19:10;;;;;;;4.63;4.23;;;;;;;;;;5055877;28;20445;-76
2022/06/29 13:21:38;;;;;;;7.23;4.33;;;;;;;;;;5054120;28;20985;-78
2022/06/29 13:24:06;;;;;;;4.17;3.80;;;;;;;;;;5052424;28;20485;-78
2022/06/29 13:26:33;;;;;;;4.03;3.67;;;;;;;;;;5052727;28;20445;-78
2022/06/29 13:29:00;;;;;;;4.47;4.07;;;;;;;;;;5052706;28;20503;-78
2022/06/29 13:31:30;;;;;;;4.33;4.00;;;;;;;;;;5052330;28;20461;-76
2022/06/29 13:33:57;;;;;;;3.90;3.57;;;;;;;;;;5052878;28;20445;-78
2022/06/29 13:36:24;;;;;;;4.60;4.20;;;;;;;;;;5052202;28;20503;-78
2022/06/29 13:38:51;;;;;;;4.30;4.00;;;;;;;;;;5053016;28;20454;-77
2022/06/29 13:41:20;;;;;;;4.77;4.37;;;;;;;;;;5052561;28;20476;-77
2022/06/29 13:43:47;;;;;;;5.17;3.63;;;;;;;;;;5052251;28;21077;-77
2022/06/29 13:46:14;;;;;;;4.80;4.40;;;;;;;;;;5052540;28;20445;-78
2022/06/29 13:48:42;;;;;;;4.90;4.40;;;;;;;;;;5052507;28;20449;-77
2022/06/29 13:51:10;;;;;;;5.17;4.43;;;;;;;;;;5052127;28;20500;-77
2022/06/29 13:53:37;;;;;;;4.73;4.30;;;;;;;;;;5052167;28;20448;-76
2022/06/29 13:56:05;;;;;;;4.83;4.53;;;;;;;;;;5052130;28;20446;-77
2022/06/29 13:58:32;;;;;;;6.93;4.37;;;;;;;;;;5051890;28;20528;-77
2022/06/29 14:00:59;;;;;;;5.30;4.90;;;;;;;;;;5051881;28;20978;-77
2022/06/29 14:03:26;;;;;;;3.83;3.50;;;;;;;;;;5051948;28;20477;-77
2022/06/29 14:05:55;;;;;;;4.97;4.47;;;;;;;;;;5052194;28;21003;-77
2022/06/29 14:08:22;;;;;;;4.40;4.10;;;;;;;;;;5047696;28;20935;-78
2022/06/29 14:10:49;;;;;;;4.53;4.13;;;;;;;;;;5032031;28;20469;-77
2022/06/29 14:13:17;;;;;;;4.60;4.20;;;;;;;;;;5032086;28;20438;-78
2022/06/29 14:15:44;;;;;;;5.03;4.67;;;;;;;;;;5034843;28;20453;-77
2022/06/29 14:18:13;;;;;;;6.60;4.73;;;;;;;;;;5033327;28;20942;-77
2022/06/29 14:20:40;;;;;;;5.00;4.60;;;;;;;;;;5032156;28;20537;-78
2022/06/29 14:23:08;;;;;;;4.37;4.07;;;;;;;;;;5031457;28;20573;-77
2022/06/29 14:25:35;;;;;;;4.70;4.40;;;;;;;;;;5032651;28;20454;-77
2022/06/29 14:28:02;;;;;;;5.07;4.47;;;;;;;;;;5031851;28;20454;-78
2022/06/29 14:30:29;;;;;;;4.57;4.10;;;;;;;;;;5030935;28;20469;-78
2022/06/29 14:32:56;;;;;;;4.80;4.40;;;;;;;;;;5030975;28;20504;-77
2022/06/29 14:35:23;;;;;;;5.23;4.00;;;;;;;;;;5031236;28;20445;-78
2022/06/29 14:37:51;;;;;;;4.67;4.37;;;;;;;;;;5031582;28;20473;-77
2022/06/29 14:40:20;;;;;;;4.27;3.77;;;;;;;;;;5031679;28;20450;-77
2022/06/29 14:42:47;;;;;;;7.13;4.13;;;;;;;;;;5031046;28;20478;-79
2022/06/29 14:45:14;;;;;;;5.10;4.70;;;;;;;;;;5036465;28;20864;-78
2022/06/29 14:47:41;;;;;;;4.40;4.13;;;;;;;;;;5041379;28;20454;-77
2022/06/29 14:50:08;;;;;;;4.63;4.40;;;;;;;;;;5035432;28;20450;-78
2022/06/29 14:52:36;;;;;;;5.07;4.30;;;;;;;;;;5031478;28;20516;-78
2022/06/29 14:55:03;;;;;;;4.60;4.00;;;;;;;;;;5031721;28;20446;-78
2022/06/29 14:57:32;;;;;;;4.67;4.37;;;;;;;;;;5031802;28;20426;-78
2022/06/29 14:59:59;;;;;;;4.20;3.80;;;;;;;;;;5032463;28;20446;-79
2022/06/29 15:02:26;;;;;;;5.03;4.00;;;;;;;;;;5032162;28;20462;-78
2022/06/29 15:04:53;;;;;;;5.33;3.90;;;;;;;;;;5032354;28;20486;-79
2022/06/29 15:07:20;;;;;;;4.50;4.10;;;;;;;;;;5031860;28;20468;-78
2022/06/29 15:09:47;;;;;;;5.23;4.77;;;;;;;;;;5047468;28;20555;-79
2022/06/29 15:12:14;;;;;;;4.53;4.23;;;;;;;;;;5051335;28;20465;-78